createdAt,value
2017-08-24T00:00:18.193Z,1007.2
2017-08-24T00:01:18.835Z,1007.3
2017-08-24T00:02:19.478Z,1007.2
2017-08-24T00:03:20.119Z,1007.2
2017-08-24T00:04:20.761Z,1007.2
2017-08-24T00:05:21.401Z,1007.2
2017-08-24T00:06:22.042Z,1007.2
2017-08-24T00:07:22.686Z,1007.2
2017-08-24T00:08:23.426Z,1007.2
2017-08-24T00:09:24.066Z,1007.2
2017-08-24T00:10:24.707Z,1007.2
2017-08-24T00:11:25.351Z,1007.1
2017-08-24T00:12:25.991Z,1007.2
2017-08-24T00:13:26.634Z,1007.2
2017-08-24T00:14:27.275Z,1007.2
2017-08-24T00:15:27.918Z,1007.2
2017-08-24T00:16:28.559Z,1007.2
2017-08-24T00:17:29.200Z,1007.2
2017-08-24T00:18:29.841Z,1007.2
2017-08-24T00:19:30.481Z,1007.2
2017-08-24T00:20:31.123Z,1007.2
2017-08-24T00:21:31.765Z,1007.2
2017-08-24T00:22:32.406Z,1007.2
2017-08-24T00:23:33.299Z,1007.2
2017-08-24T00:24:33.941Z,1007.2
2017-08-24T00:25:34.582Z,1007.2
2017-08-24T00:26:35.223Z,1007.2
2017-08-24T00:27:35.866Z,1007.2
2017-08-24T00:28:36.506Z,1007.2
2017-08-24T00:29:37.152Z,1007.2
2017-08-24T00:30:37.800Z,1007.2
2017-08-24T00:31:38.443Z,1007.2
2017-08-24T00:32:39.085Z,1007.2
2017-08-24T00:33:39.728Z,1007.2
2017-08-24T00:34:40.371Z,1007.3
2017-08-24T00:35:41.014Z,1007.2
2017-08-24T00:36:41.656Z,1007.2
2017-08-24T00:37:42.298Z,1007.2
2017-08-24T00:38:43.092Z,1007.2
2017-08-24T00:39:43.742Z,1007.2
2017-08-24T00:40:44.388Z,1007.3
2017-08-24T00:41:45.027Z,1007.3
2017-08-24T00:42:45.669Z,1007.3
2017-08-24T00:43:46.346Z,1007.4
2017-08-24T00:44:46.951Z,1007.4
2017-08-24T00:45:47.591Z,1007.4
2017-08-24T00:46:48.234Z,1007.3
2017-08-24T00:47:48.885Z,1007.3
2017-08-24T00:48:49.525Z,1007.3
2017-08-24T00:49:50.168Z,1007.3
2017-08-24T00:50:50.809Z,1007.4
2017-08-24T00:51:51.452Z,1007.4
2017-08-24T00:52:52.094Z,1007.3
2017-08-24T00:53:52.836Z,1007.3
2017-08-24T00:54:53.478Z,1007.3
2017-08-24T00:55:54.121Z,1007.3
2017-08-24T00:56:54.767Z,1007.2
2017-08-24T00:57:55.409Z,1007.3
2017-08-24T00:58:56.048Z,1007.3
2017-08-24T00:59:56.692Z,1007.3
2017-08-24T01:00:57.334Z,1007.4
2017-08-24T01:01:57.976Z,1007.3
2017-08-24T01:02:58.620Z,1007.3
2017-08-24T01:03:59.263Z,1007.3
2017-08-24T01:04:59.906Z,1007.3
2017-08-24T01:06:00.548Z,1007.3
2017-08-24T01:07:01.191Z,1007.3
2017-08-24T01:08:01.838Z,1007.3
2017-08-24T01:09:02.635Z,1007.3
2017-08-24T01:10:03.276Z,1007.4
2017-08-24T01:11:03.917Z,1007.3
2017-08-24T01:12:04.640Z,1007.3
2017-08-24T01:13:05.322Z,1007.3
2017-08-24T01:14:05.963Z,1007.3
2017-08-24T01:15:06.604Z,1007.3
2017-08-24T01:16:07.248Z,1007.4
2017-08-24T01:17:07.890Z,1007.4
2017-08-24T01:18:08.532Z,1007.4
2017-08-24T01:19:09.174Z,1007.4
2017-08-24T01:20:09.818Z,1007.4
2017-08-24T01:21:10.458Z,1007.4
2017-08-24T01:22:11.099Z,1007.4
2017-08-24T01:23:11.743Z,1007.4
2017-08-24T01:24:12.635Z,1007.4
2017-08-24T01:25:13.276Z,1007.4
2017-08-24T01:26:13.919Z,1007.4
2017-08-24T01:27:14.562Z,1007.4
2017-08-24T01:28:15.205Z,1007.4
2017-08-24T01:29:15.845Z,1007.3
2017-08-24T01:30:16.485Z,1007.4
2017-08-24T01:31:17.131Z,1007.4
2017-08-24T01:32:17.800Z,1007.4
2017-08-24T01:33:18.440Z,1007.4
2017-08-24T01:34:19.084Z,1007.4
2017-08-24T01:35:19.726Z,1007.4
2017-08-24T01:36:20.367Z,1007.5
2017-08-24T01:37:21.014Z,1007.6
2017-08-24T01:38:21.653Z,1007.6
2017-08-24T01:39:22.446Z,1007.5
2017-08-24T01:40:23.089Z,1007.5
2017-08-24T01:41:23.730Z,1007.6
2017-08-24T01:42:24.371Z,1007.5
2017-08-24T01:43:25.012Z,1007.5
2017-08-24T01:44:25.652Z,1007.5
2017-08-24T01:45:26.293Z,1007.5
2017-08-24T01:46:26.937Z,1007.6
2017-08-24T01:47:27.576Z,1007.5
2017-08-24T01:48:28.219Z,1007.5
2017-08-24T01:49:28.862Z,1007.5
2017-08-24T01:50:29.505Z,1007.5
2017-08-24T01:51:30.147Z,1007.5
2017-08-24T01:52:30.788Z,1007.5
2017-08-24T01:53:31.428Z,1007.5
2017-08-24T01:54:32.174Z,1007.4
2017-08-24T01:55:32.813Z,1007.5
2017-08-24T01:56:33.455Z,1007.5
2017-08-24T01:57:34.099Z,1007.5
2017-08-24T01:58:34.740Z,1007.5
2017-08-24T01:59:35.382Z,1007.5
2017-08-24T02:00:36.023Z,1007.5
2017-08-24T02:01:36.663Z,1007.5
2017-08-24T02:02:37.306Z,1007.6
2017-08-24T02:03:37.946Z,1007.5
2017-08-24T02:04:38.589Z,1007.6
2017-08-24T02:05:39.230Z,1007.6
2017-08-24T02:06:39.872Z,1007.6
2017-08-24T02:07:40.514Z,1007.6
2017-08-24T02:08:41.155Z,1007.6
2017-08-24T02:09:41.945Z,1007.6
2017-08-24T02:10:42.587Z,1007.7
2017-08-24T02:11:43.228Z,1007.7
2017-08-24T02:12:43.871Z,1007.7
2017-08-24T02:13:44.513Z,1007.7
2017-08-24T02:14:45.157Z,1007.8
2017-08-24T02:15:45.799Z,1007.8
2017-08-24T02:16:46.443Z,1007.7
2017-08-24T02:17:47.084Z,1007.7
2017-08-24T02:18:47.726Z,1007.7
2017-08-24T02:19:48.366Z,1007.7
2017-08-24T02:20:49.008Z,1007.7
2017-08-24T02:21:49.650Z,1007.7
2017-08-24T02:22:50.292Z,1007.7
2017-08-24T02:23:50.934Z,1007.7
2017-08-24T02:24:51.675Z,1007.7
2017-08-24T02:25:52.316Z,1007.7
2017-08-24T02:26:52.958Z,1007.6
2017-08-24T02:27:53.599Z,1007.6
2017-08-24T02:28:54.244Z,1007.7
2017-08-24T02:29:54.883Z,1007.7
2017-08-24T02:30:55.523Z,1007.7
2017-08-24T02:31:56.172Z,1007.7
2017-08-24T02:32:56.811Z,1007.7
2017-08-24T02:33:57.452Z,1007.7
2017-08-24T02:34:58.094Z,1007.7
2017-08-24T02:35:58.734Z,1007.7
2017-08-24T02:36:59.376Z,1007.7
2017-08-24T02:38:00.017Z,1007.7
2017-08-24T02:39:00.660Z,1007.8
2017-08-24T02:40:01.450Z,1007.7
2017-08-24T02:41:02.091Z,1007.7
2017-08-24T02:42:02.734Z,1007.7
2017-08-24T02:43:03.376Z,1007.8
2017-08-24T02:44:04.020Z,1007.8
2017-08-24T02:45:04.662Z,1007.8
2017-08-24T02:46:05.302Z,1007.7
2017-08-24T02:47:05.945Z,1007.8
2017-08-24T02:48:06.585Z,1007.8
2017-08-24T02:49:07.230Z,1007.7
2017-08-24T02:50:07.869Z,1007.7
2017-08-24T02:51:08.513Z,1007.7
2017-08-24T02:52:09.223Z,1007.8
2017-08-24T02:53:09.863Z,1007.8
2017-08-24T02:54:10.505Z,1007.8
2017-08-24T02:55:11.347Z,1007.8
2017-08-24T02:56:11.987Z,1007.8
2017-08-24T02:57:12.630Z,1007.8
2017-08-24T02:58:13.274Z,1007.8
2017-08-24T02:59:13.917Z,1007.8
2017-08-24T03:00:14.559Z,1007.8
2017-08-24T03:01:15.202Z,1007.8
2017-08-24T03:02:15.844Z,1007.8
2017-08-24T03:03:16.485Z,1007.8
2017-08-24T03:04:17.128Z,1007.9
2017-08-24T03:05:17.769Z,1007.9
2017-08-24T03:06:18.410Z,1007.9
2017-08-24T03:07:19.052Z,1007.9
2017-08-24T03:08:19.696Z,1007.9
2017-08-24T03:09:20.336Z,1007.9
2017-08-24T03:10:21.130Z,1007.8
2017-08-24T03:11:21.773Z,1007.8
2017-08-24T03:12:22.414Z,1007.9
2017-08-24T03:13:23.059Z,1007.8
2017-08-24T03:14:23.700Z,1007.9
2017-08-24T03:15:24.340Z,1007.8
2017-08-24T03:16:24.981Z,1007.9
2017-08-24T03:17:25.622Z,1007.9
2017-08-24T03:18:26.265Z,1007.9
2017-08-24T03:19:26.907Z,1007.8
2017-08-24T03:20:27.549Z,1007.9
2017-08-24T03:21:28.190Z,1007.9
2017-08-24T03:22:28.832Z,1007.9
2017-08-24T03:23:29.477Z,1007.9
2017-08-24T03:24:30.125Z,1007.9
2017-08-24T03:25:30.869Z,1007.9
2017-08-24T03:26:31.507Z,1007.9
2017-08-24T03:27:32.147Z,1007.9
2017-08-24T03:28:32.790Z,1007.9
2017-08-24T03:29:33.429Z,1007.9
2017-08-24T03:30:34.074Z,1007.9
2017-08-24T03:31:34.717Z,1007.9
2017-08-24T03:32:35.357Z,1007.9
2017-08-24T03:33:35.997Z,1007.9
2017-08-24T03:34:36.638Z,1007.9
2017-08-24T03:35:37.280Z,1007.9
2017-08-24T03:36:37.922Z,1007.9
2017-08-24T03:37:38.564Z,1008.0
2017-08-24T03:38:39.205Z,1008.0
2017-08-24T03:39:39.849Z,1008.0
2017-08-24T03:40:40.642Z,1008.0
2017-08-24T03:41:41.283Z,1008.1
2017-08-24T03:42:41.926Z,1008.0
2017-08-24T03:43:42.567Z,1008.1
2017-08-24T03:44:43.209Z,1008.0
2017-08-24T03:45:43.851Z,1008.1
2017-08-24T03:46:44.492Z,1008.1
2017-08-24T03:47:45.133Z,1008.1
2017-08-24T03:48:45.776Z,1008.1
2017-08-24T03:49:46.419Z,1008.1
2017-08-24T03:50:47.061Z,1008.1
2017-08-24T03:51:47.702Z,1008.1
2017-08-24T03:52:48.345Z,1008.2
2017-08-24T03:53:48.987Z,1008.1
2017-08-24T03:54:49.627Z,1008.1
2017-08-24T03:55:50.369Z,1008.1
2017-08-24T03:56:51.009Z,1008.1
2017-08-24T03:57:51.652Z,1008.2
2017-08-24T03:58:52.294Z,1008.2
2017-08-24T03:59:52.937Z,1008.2
2017-08-24T04:00:53.579Z,1008.1
2017-08-24T04:01:54.221Z,1008.1
2017-08-24T04:02:54.861Z,1008.2
2017-08-24T04:03:55.503Z,1008.2
2017-08-24T04:04:56.147Z,1008.2
2017-08-24T04:05:56.787Z,1008.2
2017-08-24T04:06:57.429Z,1008.2
2017-08-24T04:07:58.072Z,1008.2
2017-08-24T04:08:58.717Z,1008.2
2017-08-24T04:09:59.358Z,1008.2
2017-08-24T04:11:00.102Z,1008.2
2017-08-24T04:12:00.741Z,1008.3
2017-08-24T04:13:01.385Z,1008.3
2017-08-24T04:14:02.026Z,1008.3
2017-08-24T04:15:02.669Z,1008.3
2017-08-24T04:16:03.309Z,1008.3
2017-08-24T04:17:03.952Z,1008.4
2017-08-24T04:18:04.593Z,1008.4
2017-08-24T04:19:05.236Z,1008.4
2017-08-24T04:20:05.878Z,1008.4
2017-08-24T04:21:06.518Z,1008.3
2017-08-24T04:22:07.159Z,1008.4
2017-08-24T04:23:07.800Z,1008.4
2017-08-24T04:24:08.445Z,1008.4
2017-08-24T04:25:09.088Z,1008.4
2017-08-24T04:26:09.880Z,1008.4
2017-08-24T04:27:10.522Z,1008.4
2017-08-24T04:28:11.164Z,1008.4
2017-08-24T04:29:11.808Z,1008.4
2017-08-24T04:30:12.450Z,1008.4
2017-08-24T04:31:13.094Z,1008.4
2017-08-24T04:32:13.778Z,1008.4
2017-08-24T04:33:14.421Z,1008.4
2017-08-24T04:34:15.060Z,1008.5
2017-08-24T04:35:15.700Z,1008.4
2017-08-24T04:36:16.342Z,1008.4
2017-08-24T04:37:16.983Z,1008.4
2017-08-24T04:38:17.626Z,1008.5
2017-08-24T04:39:18.266Z,1008.5
2017-08-24T04:40:18.909Z,1008.5
2017-08-24T04:41:19.702Z,1008.5
2017-08-24T04:42:20.341Z,1008.6
2017-08-24T04:43:20.982Z,1008.6
2017-08-24T04:44:21.625Z,1008.6
2017-08-24T04:45:22.266Z,1008.5
2017-08-24T04:46:22.910Z,1008.6
2017-08-24T04:47:23.553Z,1008.6
2017-08-24T04:48:24.195Z,1008.6
2017-08-24T04:49:24.837Z,1008.6
2017-08-24T04:50:25.478Z,1008.7
2017-08-24T04:51:26.118Z,1008.7
2017-08-24T04:52:26.760Z,1008.7
2017-08-24T04:53:27.401Z,1008.7
2017-08-24T04:54:28.044Z,1008.7
2017-08-24T04:55:28.688Z,1008.7
2017-08-24T04:56:29.426Z,1008.7
2017-08-24T04:57:30.067Z,1008.7
2017-08-24T04:58:30.709Z,1008.7
2017-08-24T04:59:31.351Z,1008.7
2017-08-24T05:00:31.991Z,1008.8
2017-08-24T05:01:32.634Z,1008.8
2017-08-24T05:02:33.275Z,1008.8
2017-08-24T05:03:33.917Z,1008.8
2017-08-24T05:04:34.559Z,1008.7
2017-08-24T05:05:35.202Z,1008.7
2017-08-24T05:06:35.845Z,1008.7
2017-08-24T05:07:36.487Z,1008.7
2017-08-24T05:08:37.129Z,1008.7
2017-08-24T05:09:37.770Z,1008.7
2017-08-24T05:10:39.263Z,1008.7
2017-08-24T05:11:39.903Z,1008.7
2017-08-24T05:12:40.547Z,1008.7
2017-08-24T05:13:41.188Z,1008.7
2017-08-24T05:14:41.831Z,1008.7
2017-08-24T05:15:42.473Z,1008.8
2017-08-24T05:16:43.117Z,1008.8
2017-08-24T05:17:43.759Z,1008.8
2017-08-24T05:18:44.403Z,1008.8
2017-08-24T05:19:45.045Z,1008.8
2017-08-24T05:20:45.690Z,1008.8
2017-08-24T05:21:46.327Z,1008.8
2017-08-24T05:22:46.967Z,1008.8
2017-08-24T05:23:47.613Z,1008.9
2017-08-24T05:24:48.402Z,1008.8
2017-08-24T05:25:49.048Z,1008.9
2017-08-24T05:26:49.791Z,1008.8
2017-08-24T05:27:50.433Z,1008.8
2017-08-24T05:28:51.074Z,1008.9
2017-08-24T05:29:51.715Z,1008.9
2017-08-24T05:30:52.355Z,1008.8
2017-08-24T05:31:52.997Z,1008.9
2017-08-24T05:32:53.640Z,1008.9
2017-08-24T05:33:54.281Z,1008.9
2017-08-24T05:34:54.924Z,1009.0
2017-08-24T05:35:55.565Z,1009.0
2017-08-24T05:36:56.209Z,1009.0
2017-08-24T05:37:56.847Z,1009.0
2017-08-24T05:38:57.488Z,1009.0
2017-08-24T05:39:58.129Z,1009.0
2017-08-24T05:40:58.771Z,1009.0
2017-08-24T05:41:59.662Z,1009.0
2017-08-24T05:43:00.305Z,1009.1
2017-08-24T05:44:00.945Z,1009.0
2017-08-24T05:45:01.586Z,1009.1
2017-08-24T05:46:02.326Z,1009.0
2017-08-24T05:47:02.968Z,1009.0
2017-08-24T05:48:03.609Z,1009.1
2017-08-24T05:49:04.251Z,1009.1
2017-08-24T05:50:04.892Z,1009.1
2017-08-24T05:51:05.536Z,1009.1
2017-08-24T05:52:06.173Z,1009.1
2017-08-24T05:53:06.816Z,1009.1
2017-08-24T05:54:07.457Z,1009.1
2017-08-24T05:55:08.100Z,1009.1
2017-08-24T05:56:08.741Z,1009.1
2017-08-24T05:57:09.384Z,1009.1
2017-08-24T05:58:10.026Z,1009.2
2017-08-24T05:59:10.666Z,1009.2
2017-08-24T06:00:11.306Z,1009.2
2017-08-24T06:01:12.048Z,1009.3
2017-08-24T06:02:12.688Z,1009.3
2017-08-24T06:03:13.329Z,1009.4
2017-08-24T06:04:13.970Z,1009.4
2017-08-24T06:05:14.612Z,1009.4
2017-08-24T06:06:15.252Z,1009.4
2017-08-24T06:07:15.892Z,1009.4
2017-08-24T06:08:16.885Z,1009.3
2017-08-24T06:09:17.526Z,1009.3
2017-08-24T06:10:18.169Z,1009.4
2017-08-24T06:11:18.810Z,1009.4
2017-08-24T06:12:19.554Z,1009.4
2017-08-24T06:13:20.195Z,1009.4
2017-08-24T06:14:20.835Z,1009.4
2017-08-24T06:15:21.477Z,1009.5
2017-08-24T06:16:22.120Z,1009.5
2017-08-24T06:17:22.766Z,1009.5
2017-08-24T06:18:23.756Z,1009.5
2017-08-24T06:19:24.398Z,1009.4
2017-08-24T06:20:25.038Z,1009.5
2017-08-24T06:21:25.680Z,1009.4
2017-08-24T06:22:26.322Z,1009.4
2017-08-24T06:23:26.965Z,1009.5
2017-08-24T06:24:27.607Z,1009.5
2017-08-24T06:25:28.351Z,1009.5
2017-08-24T06:26:28.992Z,1009.6
2017-08-24T06:27:29.632Z,1009.5
2017-08-24T06:28:30.275Z,1009.5
2017-08-24T06:29:30.915Z,1009.5
2017-08-24T06:30:31.559Z,1009.6
2017-08-24T06:31:32.351Z,1009.5
2017-08-24T06:32:32.997Z,1009.5
2017-08-24T06:33:33.632Z,1009.5
2017-08-24T06:34:34.274Z,1009.5
2017-08-24T06:35:34.916Z,1009.5
2017-08-24T06:36:35.557Z,1009.5
2017-08-24T06:37:36.196Z,1009.5
2017-08-24T06:38:36.838Z,1009.5
2017-08-24T06:39:37.477Z,1009.5
2017-08-24T06:40:38.120Z,1009.5
2017-08-24T06:41:38.763Z,1009.5
2017-08-24T06:42:39.405Z,1009.6
2017-08-24T06:43:40.047Z,1009.6
2017-08-24T06:44:40.689Z,1009.5
2017-08-24T06:45:41.330Z,1009.5
2017-08-24T06:46:41.971Z,1009.5
2017-08-24T06:47:42.611Z,1009.5
2017-08-24T06:48:43.251Z,1009.5
2017-08-24T06:49:43.895Z,1009.5
2017-08-24T06:50:44.635Z,1009.5
2017-08-24T06:51:45.275Z,1009.5
2017-08-24T06:52:45.916Z,1009.5
2017-08-24T06:53:46.557Z,1009.5
2017-08-24T06:54:47.199Z,1009.5
2017-08-24T06:55:47.840Z,1009.5
2017-08-24T06:56:48.480Z,1009.5
2017-08-24T06:57:49.123Z,1009.5
2017-08-24T06:58:49.765Z,1009.5
2017-08-24T06:59:50.406Z,1009.5
2017-08-24T07:00:51.048Z,1009.5
2017-08-24T07:01:51.789Z,1009.5
2017-08-24T07:02:52.428Z,1009.6
2017-08-24T07:03:53.069Z,1009.6
2017-08-24T07:04:53.813Z,1009.6
2017-08-24T07:05:54.652Z,1009.7
2017-08-24T07:06:55.297Z,1009.6
2017-08-24T07:07:55.935Z,1009.7
2017-08-24T07:08:56.574Z,1009.7
2017-08-24T07:09:57.364Z,1009.7
2017-08-24T07:10:58.004Z,1009.8
2017-08-24T07:11:58.648Z,1009.8
2017-08-24T07:12:59.288Z,1009.8
2017-08-24T07:13:59.931Z,1009.8
2017-08-24T07:15:00.724Z,1009.8
2017-08-24T07:16:01.366Z,1009.8
2017-08-24T07:17:02.009Z,1009.8
2017-08-24T07:18:02.651Z,1009.8
2017-08-24T07:19:03.293Z,1009.8
2017-08-24T07:20:03.935Z,1009.9
2017-08-24T07:21:04.579Z,1009.8
2017-08-24T07:22:05.221Z,1009.8
2017-08-24T07:23:05.864Z,1009.9
2017-08-24T07:24:06.506Z,1009.9
2017-08-24T07:25:07.299Z,1009.9
2017-08-24T07:26:07.940Z,1009.9
2017-08-24T07:27:08.583Z,1010.0
2017-08-24T07:28:09.224Z,1010.0
2017-08-24T07:29:10.216Z,1010.0
2017-08-24T07:30:10.960Z,1010.0
2017-08-24T07:31:11.599Z,1010.0
2017-08-24T07:32:12.254Z,1010.1
2017-08-24T07:33:12.896Z,1010.0
2017-08-24T07:34:13.538Z,1010.0
2017-08-24T07:35:14.182Z,1010.0
2017-08-24T07:36:14.824Z,1010.1
2017-08-24T07:37:15.466Z,1010.0
2017-08-24T07:38:16.109Z,1010.0
2017-08-24T07:39:16.750Z,1010.0
2017-08-24T07:40:17.393Z,1010.0
2017-08-24T07:41:18.036Z,1010.0
2017-08-24T07:42:18.678Z,1010.0
2017-08-24T07:43:19.320Z,1010.0
2017-08-24T07:44:19.963Z,1009.9
2017-08-24T07:45:20.603Z,1010.0
2017-08-24T07:46:21.244Z,1010.0
2017-08-24T07:47:21.884Z,1010.0
2017-08-24T07:48:22.525Z,1010.0
2017-08-24T07:49:23.167Z,1010.0
2017-08-24T07:50:23.811Z,1010.0
2017-08-24T07:51:24.453Z,1010.1
2017-08-24T07:52:25.096Z,1010.1
2017-08-24T07:53:25.742Z,1010.1
2017-08-24T07:54:26.382Z,1010.1
2017-08-24T07:55:27.023Z,1010.1
2017-08-24T07:56:27.667Z,1010.1
2017-08-24T07:57:28.307Z,1010.1
2017-08-24T07:58:28.951Z,1010.1
2017-08-24T07:59:29.593Z,1010.0
2017-08-24T08:00:30.337Z,1010.1
2017-08-24T08:01:30.977Z,1010.1
2017-08-24T08:02:31.719Z,1010.1
2017-08-24T08:03:32.462Z,1010.1
2017-08-24T08:04:33.105Z,1010.1
2017-08-24T08:05:33.748Z,1010.2
2017-08-24T08:06:34.390Z,1010.2
2017-08-24T08:07:35.033Z,1010.2
2017-08-24T08:08:35.678Z,1010.2
2017-08-24T08:09:36.320Z,1010.2
2017-08-24T08:10:37.114Z,1010.2
2017-08-24T08:11:37.758Z,1010.2
2017-08-24T08:12:38.401Z,1010.2
2017-08-24T08:13:39.045Z,1010.2
2017-08-24T08:14:39.688Z,1010.2
2017-08-24T08:15:40.432Z,1010.2
2017-08-24T08:16:41.073Z,1010.2
2017-08-24T08:17:41.717Z,1010.3
2017-08-24T08:18:42.359Z,1010.3
2017-08-24T08:19:43.008Z,1010.2
2017-08-24T08:20:43.647Z,1010.3
2017-08-24T08:21:44.288Z,1010.3
2017-08-24T08:22:44.929Z,1010.3
2017-08-24T08:23:45.573Z,1010.3
2017-08-24T08:24:46.567Z,1010.3
2017-08-24T08:25:47.212Z,1010.3
2017-08-24T08:26:48.312Z,1010.4
2017-08-24T08:27:48.955Z,1010.3
2017-08-24T08:28:49.599Z,1010.3
2017-08-24T08:29:50.242Z,1010.3
2017-08-24T08:30:50.885Z,1010.3
2017-08-24T08:31:51.679Z,1010.3
2017-08-24T08:32:52.323Z,1010.3
2017-08-24T08:33:52.966Z,1010.4
2017-08-24T08:34:53.613Z,1010.3
2017-08-24T08:35:54.253Z,1010.4
2017-08-24T08:36:54.897Z,1010.3
2017-08-24T08:37:55.540Z,1010.4
2017-08-24T08:38:56.183Z,1010.4
2017-08-24T08:39:56.826Z,1010.3
2017-08-24T08:40:57.471Z,1010.4
2017-08-24T08:41:58.112Z,1010.4
2017-08-24T08:42:58.753Z,1010.4
2017-08-24T08:43:59.395Z,1010.3
2017-08-24T08:45:00.039Z,1010.4
2017-08-24T08:46:00.682Z,1010.4
2017-08-24T08:47:01.326Z,1010.4
2017-08-24T08:48:01.967Z,1010.4
2017-08-24T08:49:02.610Z,1010.4
2017-08-24T08:50:03.254Z,1010.3
2017-08-24T08:51:04.048Z,1010.3
2017-08-24T08:52:04.691Z,1010.4
2017-08-24T08:53:05.336Z,1010.4
2017-08-24T08:54:05.980Z,1010.4
2017-08-24T08:55:06.623Z,1010.4
2017-08-24T08:56:07.265Z,1010.4
2017-08-24T08:57:07.908Z,1010.4
2017-08-24T08:58:08.556Z,1010.4
2017-08-24T08:59:09.194Z,1010.4
2017-08-24T09:00:09.936Z,1010.4
2017-08-24T09:01:10.682Z,1010.4
2017-08-24T09:02:11.325Z,1010.5
2017-08-24T09:03:12.069Z,1010.5
2017-08-24T09:04:12.752Z,1010.5
2017-08-24T09:05:13.397Z,1010.4
2017-08-24T09:06:14.041Z,1010.5
2017-08-24T09:07:14.687Z,1010.5
2017-08-24T09:08:15.431Z,1010.5
2017-08-24T09:09:16.075Z,1010.5
2017-08-24T09:10:16.819Z,1010.5
2017-08-24T09:11:17.462Z,1010.5
2017-08-24T09:12:18.109Z,1010.5
2017-08-24T09:13:19.007Z,1010.4
2017-08-24T09:14:19.647Z,1010.5
2017-08-24T09:15:20.289Z,1010.5
2017-08-24T09:16:20.936Z,1010.5
2017-08-24T09:17:21.579Z,1010.5
2017-08-24T09:18:22.224Z,1010.5
2017-08-24T09:19:22.866Z,1010.5
2017-08-24T09:20:23.512Z,1010.5
2017-08-24T09:21:24.156Z,1010.5
2017-08-24T09:22:24.801Z,1010.5
2017-08-24T09:23:25.442Z,1010.5
2017-08-24T09:24:26.189Z,1010.5
2017-08-24T09:25:26.934Z,1010.5
2017-08-24T09:26:27.830Z,1010.5
2017-08-24T09:27:28.573Z,1010.5
2017-08-24T09:28:29.217Z,1010.5
2017-08-24T09:29:29.864Z,1010.5
2017-08-24T09:30:30.657Z,1010.6
2017-08-24T09:31:31.553Z,1010.6
2017-08-24T09:32:32.197Z,1010.6
2017-08-24T09:33:32.842Z,1010.5
2017-08-24T09:34:33.485Z,1010.6
2017-08-24T09:35:34.132Z,1010.5
2017-08-24T09:36:34.776Z,1010.5
2017-08-24T09:37:35.421Z,1010.6
2017-08-24T09:38:36.064Z,1010.6
2017-08-24T09:39:36.710Z,1010.6
2017-08-24T09:40:37.354Z,1010.6
2017-08-24T09:41:37.998Z,1010.6
2017-08-24T09:42:38.641Z,1010.6
2017-08-24T09:43:39.387Z,1010.6
2017-08-24T09:44:40.031Z,1010.6
2017-08-24T09:45:40.675Z,1010.7
2017-08-24T09:46:41.321Z,1010.6
2017-08-24T09:47:41.965Z,1010.6
2017-08-24T09:48:42.611Z,1010.6
2017-08-24T09:49:43.255Z,1010.6
2017-08-24T09:50:43.902Z,1010.6
2017-08-24T09:51:44.545Z,1010.6
2017-08-24T09:52:45.191Z,1010.6
2017-08-24T09:53:45.834Z,1010.7
2017-08-24T09:54:46.479Z,1010.6
2017-08-24T09:55:47.123Z,1010.7
2017-08-24T09:56:47.768Z,1010.6
2017-08-24T09:57:48.563Z,1010.7
2017-08-24T09:58:49.207Z,1010.6
2017-08-24T09:59:49.852Z,1010.6
2017-08-24T10:00:50.597Z,1010.6
2017-08-24T10:01:51.242Z,1010.6
2017-08-24T10:02:51.988Z,1010.6
2017-08-24T10:03:52.631Z,1010.6
2017-08-24T10:04:53.276Z,1010.6
2017-08-24T10:05:53.920Z,1010.7
2017-08-24T10:06:54.563Z,1010.6
2017-08-24T10:07:55.207Z,1010.7
2017-08-24T10:08:56.151Z,1010.7
2017-08-24T10:09:56.794Z,1010.6
2017-08-24T10:10:57.438Z,1010.7
2017-08-24T10:11:58.081Z,1010.7
2017-08-24T10:12:58.726Z,1010.6
2017-08-24T10:13:59.370Z,1010.7
2017-08-24T10:15:00.016Z,1010.7
2017-08-24T10:16:00.659Z,1010.7
2017-08-24T10:17:01.303Z,1010.7
2017-08-24T10:18:01.948Z,1010.8
2017-08-24T10:19:02.591Z,1010.7
2017-08-24T10:20:03.388Z,1010.8
2017-08-24T10:21:04.029Z,1010.7
2017-08-24T10:22:04.773Z,1010.8
2017-08-24T10:23:05.418Z,1010.8
2017-08-24T10:24:06.063Z,1010.7
2017-08-24T10:25:06.808Z,1010.8
2017-08-24T10:26:07.453Z,1010.7
2017-08-24T10:27:08.197Z,1010.7
2017-08-24T10:28:08.842Z,1010.8
2017-08-24T10:29:09.502Z,1010.7
2017-08-24T10:30:10.178Z,1010.7
2017-08-24T10:31:11.060Z,1010.7
2017-08-24T10:32:11.668Z,1010.7
2017-08-24T10:33:12.312Z,1010.7
2017-08-24T10:34:12.957Z,1010.7
2017-08-24T10:35:13.602Z,1010.7
2017-08-24T10:36:14.248Z,1010.7
2017-08-24T10:37:14.991Z,1010.7
2017-08-24T10:38:15.736Z,1010.7
2017-08-24T10:39:16.380Z,1010.7
2017-08-24T10:40:17.028Z,1010.8
2017-08-24T10:41:17.674Z,1010.8
2017-08-24T10:42:18.315Z,1010.8
2017-08-24T10:43:18.960Z,1010.8
2017-08-24T10:44:19.604Z,1010.8
2017-08-24T10:45:20.247Z,1010.8
2017-08-24T10:46:20.892Z,1010.9
2017-08-24T10:47:21.535Z,1010.8
2017-08-24T10:48:22.182Z,1010.8
2017-08-24T10:49:22.824Z,1010.9
2017-08-24T10:50:23.467Z,1010.8
2017-08-24T10:51:24.112Z,1010.9
2017-08-24T10:52:24.776Z,1010.8
2017-08-24T10:53:25.501Z,1010.8
2017-08-24T10:54:26.347Z,1010.8
2017-08-24T10:55:26.991Z,1010.8
2017-08-24T10:56:27.786Z,1010.9
2017-08-24T10:57:28.429Z,1010.9
2017-08-24T10:58:29.082Z,1010.9
2017-08-24T10:59:29.717Z,1010.9
2017-08-24T11:00:30.519Z,1010.9
2017-08-24T11:01:31.158Z,1010.9
2017-08-24T11:02:31.951Z,1010.9
2017-08-24T11:03:32.596Z,1010.9
2017-08-24T11:04:33.241Z,1010.9
2017-08-24T11:05:33.885Z,1010.9
2017-08-24T11:06:34.530Z,1010.9
2017-08-24T11:07:35.172Z,1010.9
2017-08-24T11:08:35.818Z,1010.9
2017-08-24T11:09:36.467Z,1010.9
2017-08-24T11:10:37.105Z,1010.9
2017-08-24T11:11:37.750Z,1010.9
2017-08-24T11:12:38.395Z,1010.8
2017-08-24T11:13:39.289Z,1010.9
2017-08-24T11:14:39.964Z,1010.9
2017-08-24T11:15:40.580Z,1010.9
2017-08-24T11:16:41.392Z,1010.7
2017-08-24T11:17:42.122Z,1010.8
2017-08-24T11:18:42.770Z,1010.8
2017-08-24T11:19:43.561Z,1010.8
2017-08-24T11:20:44.205Z,1010.9
2017-08-24T11:21:44.849Z,1010.9
2017-08-24T11:22:45.495Z,1010.9
2017-08-24T11:23:46.140Z,1010.9
2017-08-24T11:24:46.885Z,1010.9
2017-08-24T11:25:47.531Z,1010.9
2017-08-24T11:26:48.325Z,1010.9
2017-08-24T11:27:48.967Z,1011.0
2017-08-24T11:28:49.612Z,1010.9
2017-08-24T11:29:50.259Z,1010.9
2017-08-24T11:30:50.900Z,1010.9
2017-08-24T11:31:51.646Z,1010.9
2017-08-24T11:32:52.290Z,1010.9
2017-08-24T11:33:52.937Z,1010.9
2017-08-24T11:34:54.136Z,1010.9
2017-08-24T11:35:54.928Z,1010.9
2017-08-24T11:36:55.574Z,1010.9
2017-08-24T11:37:56.471Z,1010.9
2017-08-24T11:38:57.120Z,1010.9
2017-08-24T11:39:57.766Z,1011.0
2017-08-24T11:40:58.412Z,1010.9
2017-08-24T11:41:59.056Z,1010.9
2017-08-24T11:42:59.702Z,1010.9
2017-08-24T11:44:00.697Z,1010.9
2017-08-24T11:45:01.402Z,1011.0
2017-08-24T11:46:01.986Z,1010.9
2017-08-24T11:47:02.908Z,1010.9
2017-08-24T11:48:03.523Z,1010.9
2017-08-24T11:49:04.170Z,1010.9
2017-08-24T11:50:04.966Z,1010.9
2017-08-24T11:51:05.618Z,1010.9
2017-08-24T11:52:06.315Z,1010.8
2017-08-24T11:53:06.957Z,1010.9
2017-08-24T11:54:07.601Z,1010.9
2017-08-24T11:55:08.246Z,1010.9
2017-08-24T11:56:08.891Z,1010.9
2017-08-24T11:57:09.534Z,1010.9
2017-08-24T11:58:10.179Z,1010.9
2017-08-24T11:59:10.824Z,1010.9
2017-08-24T12:00:11.619Z,1010.9
2017-08-24T12:01:12.263Z,1010.9
2017-08-24T12:02:12.907Z,1010.9
2017-08-24T12:03:13.650Z,1010.9
2017-08-24T12:04:14.298Z,1010.9
2017-08-24T12:05:14.943Z,1010.9
2017-08-24T12:06:15.590Z,1010.9
2017-08-24T12:07:16.334Z,1010.9
2017-08-24T12:08:16.979Z,1010.9
2017-08-24T12:09:17.625Z,1010.9
2017-08-24T12:10:18.270Z,1010.9
2017-08-24T12:11:18.917Z,1010.9
2017-08-24T12:12:19.570Z,1010.9
2017-08-24T12:13:20.214Z,1010.9
2017-08-24T12:14:20.859Z,1010.9
2017-08-24T12:15:21.505Z,1010.9
2017-08-24T12:16:22.149Z,1010.9
2017-08-24T12:17:22.995Z,1010.9
2017-08-24T12:18:23.638Z,1010.9
2017-08-24T12:19:24.283Z,1011.0
2017-08-24T12:20:24.929Z,1011.0
2017-08-24T12:21:25.573Z,1011.0
2017-08-24T12:22:26.218Z,1011.0
2017-08-24T12:23:26.862Z,1011.0
2017-08-24T12:24:27.505Z,1011.0
2017-08-24T12:25:28.150Z,1011.0
2017-08-24T12:26:28.895Z,1011.0
2017-08-24T12:27:29.542Z,1011.0
2017-08-24T12:28:30.187Z,1011.0
2017-08-24T12:29:30.838Z,1010.9
2017-08-24T12:30:31.478Z,1010.9
2017-08-24T12:31:32.125Z,1010.9
2017-08-24T12:32:33.020Z,1010.9
2017-08-24T12:33:33.815Z,1010.9
2017-08-24T12:34:34.460Z,1010.9
2017-08-24T12:35:35.356Z,1010.9
2017-08-24T12:36:36.102Z,1010.9